Time;durP1;ratioP1;P1;durP2;ratioP2;P2;SDS_P1;SDS_P2;PMS_P1;PMS_P2;Temp;Humidity;BMP_temperature;BMP_pressure;BME280_temperature;BME280_humidity;BME280_pressure;Samples;Min_cycle;Max_cycle;Signal;HPM_P1;HPM_P2
2022/01/28 00:02:35;;;;;;;18.73;5.83;;;4.00;99.90;;;;;;5030077;28;20201;-56
2022/01/28 00:04:57;;;;;;;24.37;7.83;;;3.90;99.90;;;;;;5030128;28;20166;-55
2022/01/28 00:07:22;;;;;;;13.10;5.70;;;4.00;99.90;;;;;;5029787;28;20181;-55
2022/01/28 00:09:48;;;;;;;12.27;4.57;;;4.00;99.90;;;;;;5012307;28;20174;-55
2022/01/28 00:12:14;;;;;;;12.20;4.40;;;4.00;99.90;;;;;;5028322;28;20688;-56
2022/01/28 00:38:32;;;;;;;15.83;4.43;;;3.60;99.90;;;;;;5030025;28;20616;-56
2022/01/28 00:40:58;;;;;;;18.33;4.57;;;3.50;99.90;;;;;;5028076;28;20186;-56
2022/01/28 00:43:24;;;;;;;13.30;4.40;;;3.50;99.90;;;;;;5023345;28;20344;-56
2022/01/28 00:45:49;;;;;;;12.77;4.30;;;3.50;99.90;;;;;;5030132;28;20652;-56
2022/01/28 00:48:15;;;;;;;10.37;3.90;;;3.60;99.90;;;;;;5023907;28;20178;-56
2022/01/28 00:50:42;;;;;;;13.60;4.67;;;3.50;99.90;;;;;;5030343;28;20529;-56
2022/01/28 00:53:09;;;;;;;10.47;4.43;;;3.40;99.90;;;;;;5030474;28;20181;-56
2022/01/28 00:55:35;;;;;;;16.10;4.73;;;3.30;99.90;;;;;;5030458;28;20541;-56
2022/01/28 00:58:00;;;;;;;13.33;3.77;;;3.30;99.90;;;;;;5029879;28;20590;-56
2022/01/28 01:00:26;;;;;;;10.87;4.50;;;3.40;99.90;;;;;;5032719;28;20549;-57
2022/01/28 01:02:53;;;;;;;11.57;3.70;;;3.40;99.90;;;;;;5033935;28;20192;-56
2022/01/28 01:05:18;;;;;;;13.47;4.53;;;3.40;99.90;;;;;;5034205;28;20636;-57
2022/01/28 01:07:44;;;;;;;13.87;5.10;;;3.30;99.90;;;;;;5034404;28;20180;-55
2022/01/28 01:10:10;;;;;;;12.30;4.37;;;3.30;99.90;;;;;;5016464;28;20185;-55
2022/01/28 01:12:42;;;;;;;9.60;4.00;;;3.30;99.90;;;;;;5034216;28;20189;-55
2022/01/28 01:15:09;;;;;;;13.43;3.60;;;3.30;99.90;;;;;;5034270;28;20241;-56
2022/01/28 01:17:53;;;;;;;12.30;4.00;;;3.20;99.90;;;;;;5034189;28;20178;-56
2022/01/28 01:23:04;;;;;;;16.77;3.80;;;3.00;99.90;;;;;;5033749;28;20208;-56
2022/01/28 01:25:30;;;;;;;8.17;3.57;;;3.10;99.90;;;;;;5033873;28;20710;-56
2022/01/28 01:27:58;;;;;;;13.93;4.60;;;3.00;99.90;;;;;;5033826;28;20182;-56
2022/01/28 01:30:28;;;;;;;15.47;4.17;;;3.10;99.90;;;;;;5034310;28;20180;-57
2022/01/28 01:32:54;;;;;;;12.70;4.83;;;3.10;99.90;;;;;;5016126;28;20264;-57
2022/01/28 01:35:19;;;;;;;15.87;4.70;;;3.10;99.90;;;;;;5033853;28;20178;-57
2022/01/28 01:37:45;;;;;;;13.20;4.60;;;3.10;99.90;;;;;;5033417;28;20668;-57
2022/01/28 01:40:12;;;;;;;10.40;4.30;;;3.10;99.90;;;;;;5033161;28;20559;-57
2022/01/28 01:43:03;;;;;;;10.60;4.70;;;3.10;99.90;;;;;;5033080;28;20184;-57
2022/01/28 01:53:27;;;;;;;11.33;4.90;;;3.00;99.90;;;;;;5013840;28;20229;-56
2022/01/28 01:55:55;;;;;;;16.67;4.90;;;3.00;99.90;;;;;;5026133;28;20648;-57
2022/01/28 01:58:26;;;;;;;15.23;4.07;;;3.10;99.90;;;;;;5024395;28;20634;-56
2022/01/28 02:00:52;;;;;;;14.03;4.60;;;3.10;99.90;;;;;;5013969;28;20202;-57
2022/01/28 02:03:18;;;;;;;11.23;4.23;;;3.10;99.90;;;;;;5021424;28;20641;-57
2022/01/28 02:05:44;;;;;;;11.23;5.20;;;3.00;99.90;;;;;;5015639;28;20179;-57
2022/01/28 02:08:10;;;;;;;12.13;4.07;;;3.00;99.90;;;;;;5033219;28;20732;-56
2022/01/28 02:10:36;;;;;;;13.67;4.37;;;3.00;99.90;;;;;;5032709;28;20256;-55
2022/01/28 02:13:02;;;;;;;16.97;6.37;;;3.00;99.90;;;;;;5032357;28;20529;-56
2022/01/28 02:15:28;;;;;;;16.13;5.53;;;2.90;99.90;;;;;;5015256;28;20224;-55
2022/01/28 02:17:53;;;;;;;16.70;4.73;;;2.80;99.90;;;;;;5032882;28;20182;-55
2022/01/28 02:20:26;;;;;;;13.83;5.07;;;2.80;99.90;;;;;;5032945;28;20220;-55
2022/01/28 02:22:55;;;;;;;17.10;5.47;;;2.80;99.90;;;;;;5033116;28;20170;-55
2022/01/28 02:25:27;;;;;;;12.70;4.90;;;2.80;99.90;;;;;;5032914;28;20185;-60
2022/01/28 02:27:53;;;;;;;11.90;4.50;;;2.90;99.90;;;;;;5032309;28;20178;-56
2022/01/28 02:30:19;;;;;;;26.27;5.37;;;2.80;99.90;;;;;;5032768;28;20261;-55
2022/01/28 02:32:47;;;;;;;11.10;4.50;;;2.70;99.90;;;;;;5031575;28;20253;-55
2022/01/28 02:35:14;;;;;;;16.07;5.00;;;2.70;99.90;;;;;;5032837;28;20202;-56
2022/01/28 02:37:40;;;;;;;12.07;4.73;;;2.80;99.90;;;;;;5032391;28;20186;-56
2022/01/28 02:40:06;;;;;;;14.93;5.10;;;2.80;99.90;;;;;;5032799;28;20221;-55
2022/01/28 02:42:50;;;;;;;10.43;4.60;;;2.70;99.90;;;;;;5028465;28;20178;-55
2022/01/28 02:45:25;;;;;;;10.63;4.50;;;2.70;99.90;;;;;;5032021;28;20200;-55
2022/01/28 02:47:56;;;;;;;13.23;4.47;;;2.70;99.90;;;;;;5032493;28;20268;-55
2022/01/28 02:50:24;;;;;;;14.33;4.63;;;2.70;99.90;;;;;;5032469;28;20174;-56
2022/01/28 02:53:02;;;;;;;18.93;4.90;;;2.80;99.90;;;;;;5032490;28;20192;-55
2022/01/28 02:55:30;;;;;;;10.20;4.10;;;3.00;99.90;;;;;;5014285;28;20185;-55
2022/01/28 02:58:14;;;;;;;9.50;4.20;;;2.70;99.90;;;;;;5032254;28;20189;-56
2022/01/28 03:00:40;;;;;;;11.13;4.77;;;2.80;99.90;;;;;;5032185;28;20177;-55
2022/01/28 03:03:07;;;;;;;17.93;4.47;;;2.70;99.90;;;;;;5031854;28;20181;-55
2022/01/28 03:05:34;;;;;;;10.10;4.10;;;2.50;99.90;;;;;;5014511;28;20869;-55
2022/01/28 03:08:03;;;;;;;9.63;4.00;;;2.50;99.90;;;;;;5032384;28;20231;-55
2022/01/28 03:10:44;;;;;;;8.20;4.20;;;2.50;99.90;;;;;;5031409;28;20182;-55
2022/01/28 03:15:38;;;;;;;12.07;4.67;;;2.40;99.90;;;;;;5031878;28;20256;-55
2022/01/28 03:20:40;;;;;;;13.07;4.97;;;2.40;99.90;;;;;;5025887;28;20223;-56
2022/01/28 03:23:06;;;;;;;14.77;4.70;;;2.40;99.90;;;;;;5014067;28;20178;-55
2022/01/28 03:25:35;;;;;;;15.37;4.77;;;2.40;99.90;;;;;;5031834;28;20174;-56
2022/01/28 03:28:02;;;;;;;13.53;5.10;;;2.50;99.90;;;;;;5031505;28;20181;-56
2022/01/28 03:30:27;;;;;;;11.83;4.87;;;2.60;99.90;;;;;;5031245;28;20189;-56
2022/01/28 03:32:53;;;;;;;8.27;4.20;;;2.70;99.90;;;;;;5031447;28;20166;-56
2022/01/28 03:35:20;;;;;;;11.63;4.33;;;2.60;99.90;;;;;;5031820;28;20178;-56
2022/01/28 03:37:45;;;;;;;10.33;4.47;;;2.50;99.90;;;;;;5029993;28;20178;-57
2022/01/28 03:40:12;;;;;;;9.30;4.13;;;2.50;99.90;;;;;;5031361;28;20351;-57
2022/01/28 03:42:38;;;;;;;8.30;4.40;;;;;;;;;;5031486;28;20171;-56
2022/01/28 03:45:05;;;;;;;8.13;4.30;;;2.60;99.90;;;;;;5031465;28;20661;-57
2022/01/28 03:47:32;;;;;;;13.40;4.23;;;2.50;99.90;;;;;;5031153;28;20247;-56
2022/01/28 03:49:57;;;;;;;11.40;3.80;;;2.60;99.90;;;;;;5031537;28;20188;-57
2022/01/28 03:52:23;;;;;;;12.87;4.03;;;2.50;99.90;;;;;;5028772;28;20178;-58
2022/01/28 03:54:49;;;;;;;14.93;4.67;;;2.50;99.90;;;;;;5016037;28;20182;-58
2022/01/28 03:57:15;;;;;;;20.47;5.17;;;2.50;99.90;;;;;;5024063;28;20190;-58
2022/01/28 03:59:40;;;;;;;15.07;4.57;;;3.10;99.90;;;;;;5030570;28;20213;-57
2022/01/28 04:02:07;;;;;;;12.33;4.70;;;2.50;99.90;;;;;;5031053;28;20185;-57
2022/01/28 04:12:36;;;;;;;11.63;5.07;;;2.50;99.90;;;;;;5029062;28;20289;-57
2022/01/28 04:17:29;;;;;;;14.30;4.90;;;2.40;99.90;;;;;;5030910;28;20198;-57
2022/01/28 04:19:55;;;;;;;10.33;4.33;;;2.30;99.90;;;;;;5030549;28;20550;-56
2022/01/28 04:22:21;;;;;;;17.93;5.83;;;2.30;99.90;;;;;;5030680;28;20174;-56
2022/01/28 04:24:47;;;;;;;13.80;5.60;;;2.30;99.90;;;;;;5030489;28;20227;-56
2022/01/28 04:27:13;;;;;;;15.50;6.37;;;2.30;99.90;;;;;;5030487;28;20186;-56
2022/01/28 04:29:39;;;;;;;13.67;6.10;;;2.30;99.90;;;;;;5030611;28;20169;-56
2022/01/28 04:32:05;;;;;;;17.90;5.77;;;2.30;99.90;;;;;;5030320;28;20231;-57
2022/01/28 04:34:32;;;;;;;11.63;4.80;;;2.40;99.90;;;;;;5030319;28;20178;-56
2022/01/28 04:47:47;;;;;;;13.87;6.13;;;2.20;99.90;;;;;;5030556;28;20189;-57
2022/01/28 04:50:18;;;;;;;18.93;6.37;;;2.20;99.90;;;;;;5029698;28;20209;-57
2022/01/28 04:56:04;;;;;;;15.67;5.70;;;2.20;99.90;;;;;;5030472;28;20184;-57
2022/01/28 04:58:13;;;;;;;14.17;5.30;;;2.40;99.90;;;;;;5024362;28;20240;-57
2022/01/28 05:00:52;;;;;;;;;;;;;;;;;;;;;
2022/01/28 05:26:59;;;;;;;13.67;6.20;;;1.90;99.90;;;;;;5018990;28;20621;-57
2022/01/28 05:29:25;;;;;;;15.47;6.40;;;1.90;99.90;;;;;;5010564;28;20191;-56
2022/01/28 05:31:51;;;;;;;12.80;6.00;;;1.90;99.90;;;;;;5029499;28;20173;-57
2022/01/28 05:34:17;;;;;;;14.57;6.03;;;1.90;99.90;;;;;;5029937;28;20178;-57
2022/01/28 05:36:44;;;;;;;17.83;6.33;;;1.90;99.90;;;;;;5029607;28;20185;-57
2022/01/28 05:39:10;;;;;;;15.50;5.80;;;1.80;99.90;;;;;;5030159;28;20267;-56
2022/01/28 05:41:35;;;;;;;12.10;5.73;;;1.80;99.90;;;;;;5030244;28;20689;-57
2022/01/28 05:44:02;;;;;;;15.20;6.10;;;1.80;99.90;;;;;;5030147;28;20174;-57
2022/01/28 05:46:29;;;;;;;14.67;6.50;;;1.70;99.90;;;;;;5030531;28;20174;-58
2022/01/28 05:48:56;;;;;;;15.30;5.97;;;1.70;99.90;;;;;;5033681;28;20212;-57
2022/01/28 05:51:22;;;;;;;13.63;5.20;;;1.70;99.90;;;;;;5033787;28;20177;-57
2022/01/28 05:53:48;;;;;;;15.60;6.67;;;;;;;;;;5033686;28;20162;-58
2022/01/28 05:56:14;;;;;;;17.73;5.90;;;1.70;99.90;;;;;;5033345;28;20166;-57
2022/01/28 05:58:40;;;;;;;14.60;5.90;;;1.70;99.90;;;;;;5033169;28;20201;-57
2022/01/28 06:01:06;;;;;;;15.63;6.03;;;1.60;99.90;;;;;;5033615;28;20260;-58
2022/01/28 06:03:32;;;;;;;14.53;6.50;;;1.60;99.90;;;;;;5033364;28;20749;-58
2022/01/28 06:05:57;;;;;;;20.93;6.70;;;1.60;99.90;;;;;;5026599;28;20190;-58
2022/01/28 06:08:23;;;;;;;20.27;6.77;;;1.60;99.90;;;;;;5033199;28;20711;-58
2022/01/28 06:10:49;;;;;;;17.93;6.33;;;1.60;99.90;;;;;;5033358;28;20174;-58
2022/01/28 06:13:15;;;;;;;22.60;6.73;;;1.60;99.90;;;;;;5032598;28;20224;-57
2022/01/28 06:15:42;;;;;;;15.77;6.33;;;1.60;99.90;;;;;;5033099;28;20218;-57
2022/01/28 06:18:09;;;;;;;18.30;7.10;;;1.70;99.90;;;;;;5032287;28;20174;-57
2022/01/28 06:20:35;;;;;;;17.77;6.97;;;1.70;99.90;;;;;;5033154;28;20177;-58
2022/01/28 06:23:01;;;;;;;17.57;7.03;;;1.70;99.90;;;;;;5033291;28;20219;-57
2022/01/28 06:25:27;;;;;;;17.27;7.57;;;1.80;99.90;;;;;;5032822;28;20596;-58
2022/01/28 06:27:53;;;;;;;14.77;7.40;;;1.80;99.90;;;;;;5032963;28;20649;-57
2022/01/28 06:30:20;;;;;;;17.80;7.63;;;1.80;99.90;;;;;;5014104;28;20303;-57
2022/01/28 06:32:47;;;;;;;15.43;7.20;;;1.80;99.90;;;;;;5032692;28;20652;-56
2022/01/28 06:35:13;;;;;;;16.10;7.47;;;1.80;99.90;;;;;;5032620;28;20166;-57
2022/01/28 06:37:44;;;;;;;22.20;7.93;;;1.80;99.90;;;;;;5032797;28;20174;-57
2022/01/28 06:40:15;;;;;;;15.90;7.23;;;1.80;99.90;;;;;;5031688;28;20210;-58
2022/01/28 06:42:41;;;;;;;16.33;7.27;;;1.70;99.90;;;;;;5029441;28;20174;-58
2022/01/28 06:45:08;;;;;;;14.93;6.90;;;1.60;99.90;;;;;;5014946;28;20239;-58
2022/01/28 06:47:36;;;;;;;18.53;7.03;;;1.50;99.90;;;;;;5032627;28;20228;-57
2022/01/28 06:50:05;;;;;;;16.30;7.27;;;1.50;99.90;;;;;;5032480;28;20192;-56
2022/01/28 06:52:31;;;;;;;18.90;7.03;;;1.50;99.90;;;;;;5032676;28;20182;-57
2022/01/28 06:54:57;;;;;;;18.27;7.20;;;1.40;99.90;;;;;;5032589;28;20180;-56
2022/01/28 06:57:23;;;;;;;20.47;7.57;;;1.40;99.90;;;;;;5031709;28;20253;-57
2022/01/28 06:59:49;;;;;;;14.30;6.80;;;1.30;99.90;;;;;;5012643;28;20677;-56
2022/01/28 07:02:15;;;;;;;15.17;6.67;;;1.20;99.90;;;;;;4995059;28;20175;-57
2022/01/28 07:04:40;;;;;;;17.97;7.87;;;1.20;99.90;;;;;;4995073;28;20552;-56
2022/01/28 07:07:06;;;;;;;21.10;7.27;;;1.30;99.90;;;;;;5027444;28;20216;-56
2022/01/28 07:09:34;;;;;;;15.83;7.73;;;1.30;99.90;;;;;;5031761;28;20256;-55
2022/01/28 07:12:00;;;;;;;18.13;7.40;;;1.30;99.90;;;;;;5032072;28;20641;-56
2022/01/28 07:14:26;;;;;;;23.70;8.10;;;1.30;99.90;;;;;;5031745;28;20189;-57
2022/01/28 07:16:51;;;;;;;18.87;8.93;;;1.40;99.90;;;;;;5031929;28;20623;-56
2022/01/28 07:19:17;;;;;;;21.03;8.53;;;1.30;99.90;;;;;;5031997;28;20625;-57
2022/01/28 07:21:43;;;;;;;21.10;9.13;;;1.40;99.90;;;;;;5026925;28;20188;-57
2022/01/28 07:24:09;;;;;;;24.07;9.73;;;1.40;99.90;;;;;;5022296;28;20176;-56
2022/01/28 07:26:35;;;;;;;23.37;8.97;;;;;;;;;;5022526;28;20178;-56
2022/01/28 07:29:01;;;;;;;19.77;8.10;;;1.50;99.90;;;;;;5031153;28;20268;-57
2022/01/28 07:31:27;;;;;;;18.23;8.17;;;1.50;99.90;;;;;;5030931;28;20174;-56
2022/01/28 07:33:53;;;;;;;19.03;7.97;;;1.40;99.90;;;;;;5031673;28;20649;-57
2022/01/28 07:36:19;;;;;;;14.57;7.50;;;1.40;99.90;;;;;;5031813;28;20511;-56
2022/01/28 07:38:45;;;;;;;19.33;7.83;;;1.80;99.90;;;;;;5031671;28;20201;-57
2022/01/28 07:41:10;;;;;;;22.07;9.07;;;1.40;99.90;;;;;;5031354;28;20264;-56
2022/01/28 07:43:39;;;;;;;16.47;8.50;;;1.70;99.90;;;;;;5031692;28;20538;-57
2022/01/28 07:46:06;;;;;;;18.07;8.43;;;1.60;99.90;;;;;;5030988;28;20202;-58
2022/01/28 07:48:32;;;;;;;20.90;8.43;;;1.40;99.90;;;;;;5031599;28;20174;-58
2022/01/28 07:50:58;;;;;;;19.43;8.40;;;1.60;99.90;;;;;;5031358;28;20185;-58
2022/01/28 07:53:23;;;;;;;18.77;8.90;;;3.10;99.90;;;;;;5013687;28;20174;-57
2022/01/28 07:55:49;;;;;;;17.93;8.33;;;1.80;99.90;;;;;;5030813;28;20182;-57
2022/01/28 07:58:15;;;;;;;18.53;8.97;;;1.80;99.90;;;;;;5031214;28;20257;-58
2022/01/28 08:00:42;;;;;;;24.03;8.27;;;1.90;99.90;;;;;;5030244;28;20649;-56
2022/01/28 08:03:08;;;;;;;25.37;9.03;;;2.00;99.90;;;;;;5027912;28;20208;-55
2022/01/28 08:05:34;;;;;;;23.77;9.23;;;2.20;99.90;;;;;;5006721;28;20209;-55
2022/01/28 08:08:04;;;;;;;20.53;8.70;;;2.20;99.90;;;;;;5023995;28;20174;-58
2022/01/28 08:10:31;;;;;;;17.43;8.10;;;2.20;99.90;;;;;;5034549;28;20216;-57
2022/01/28 08:12:58;;;;;;;22.17;8.80;;;2.20;99.90;;;;;;5024148;28;20182;-58
2022/01/28 08:15:23;;;;;;;18.23;8.03;;;2.10;99.90;;;;;;5029900;28;20228;-58
2022/01/28 08:17:49;;;;;;;17.33;8.67;;;2.20;99.90;;;;;;5023780;28;20173;-59
2022/01/28 08:20:15;;;;;;;20.40;8.70;;;1.90;99.90;;;;;;5030217;28;20213;-58
2022/01/28 08:22:47;;;;;;;21.03;8.67;;;2.40;99.90;;;;;;5030323;28;20253;-58
2022/01/28 08:25:14;;;;;;;22.00;8.57;;;2.50;99.90;;;;;;5029648;28;20178;-58
2022/01/28 08:27:44;;;;;;;17.00;8.97;;;2.80;99.90;;;;;;5030537;28;20174;-57
2022/01/28 08:30:12;;;;;;;19.43;9.03;;;2.80;99.90;;;;;;5030152;28;20174;-56
2022/01/28 08:32:38;;;;;;;20.40;9.57;;;2.90;99.90;;;;;;5012304;28;20344;-58
2022/01/28 08:35:04;;;;;;;19.37;8.77;;;2.90;99.90;;;;;;5029784;28;20184;-59
2022/01/28 08:37:30;;;;;;;21.73;9.57;;;3.20;99.90;;;;;;5028107;28;20296;-58
2022/01/28 08:39:56;;;;;;;16.90;8.10;;;3.10;99.90;;;;;;5029877;28;20300;-58
2022/01/28 08:42:21;;;;;;;19.57;8.20;;;3.20;99.90;;;;;;5030123;28;20633;-58
2022/01/28 08:44:47;;;;;;;23.83;8.53;;;3.20;99.90;;;;;;5030512;28;20648;-57
2022/01/28 08:47:13;;;;;;;19.37;8.67;;;3.20;99.90;;;;;;5030520;28;20208;-55
2022/01/28 08:49:39;;;;;;;31.27;9.27;;;3.40;99.90;;;;;;5007770;28;20182;-56
2022/01/28 08:52:06;;;;;;;31.63;10.60;;;3.50;99.90;;;;;;5023593;28;20184;-55
2022/01/28 08:54:31;;;;;;;49.27;13.13;;;3.60;99.90;;;;;;5029935;28;20181;-56
2022/01/28 08:56:57;;;;;;;53.07;13.37;;;3.50;99.90;;;;;;5029842;28;20265;-56
2022/01/28 08:59:23;;;;;;;48.97;13.13;;;3.50;99.90;;;;;;5028750;28;20293;-56
2022/01/28 09:01:49;;;;;;;69.33;14.50;;;3.50;99.90;;;;;;5030192;28;20607;-55
2022/01/28 09:04:15;;;;;;;53.47;15.07;;;5.20;99.90;;;;;;5026018;28;20676;-56
2022/01/28 09:06:40;;;;;;;56.37;14.63;;;3.70;99.90;;;;;;5029315;28;20178;-56
2022/01/28 09:09:07;;;;;;;63.13;15.13;;;3.90;99.90;;;;;;5029681;28;20212;-55
2022/01/28 09:12:06;;;;;;;68.20;14.90;;;3.90;99.90;;;;;;5029303;28;20170;-56
2022/01/28 09:14:20;;;;;;;71.73;16.37;;;4.10;99.90;;;;;;5028332;28;20227;-55
2022/01/28 09:16:47;;;;;;;74.00;16.40;;;4.20;99.90;;;;;;5028761;28;20707;-56
2022/01/28 09:19:13;;;;;;;85.20;16.53;;;4.30;99.90;;;;;;5025739;28;20300;-55
2022/01/28 09:22:38;;;;;;;75.37;17.73;;;4.20;99.90;;;;;;5030769;28;20739;-56
2022/01/28 09:25:08;;;;;;;96.13;18.37;;;4.30;99.90;;;;;;5034441;28;20239;-53
2022/01/28 09:27:34;;;;;;;75.10;17.43;;;4.60;99.90;;;;;;5032358;28;20665;-54
2022/01/28 09:30:00;;;;;;;93.03;19.33;;;4.70;99.90;;;;;;5032658;28;20189;-55
2022/01/28 09:32:25;;;;;;;104.43;19.23;;;4.80;99.90;;;;;;5032866;28;20185;-55
2022/01/28 09:34:51;;;;;;;118.07;21.30;;;4.80;99.90;;;;;;5033220;28;20185;-56
2022/01/28 09:37:17;;;;;;;127.13;21.90;;;4.80;99.90;;;;;;5033736;28;20223;-54
2022/01/28 09:39:44;;;;;;;107.77;20.97;;;4.80;99.90;;;;;;5033423;28;20623;-54
2022/01/28 09:42:16;;;;;;;123.67;19.53;;;4.90;99.90;;;;;;5033791;28;20201;-55
2022/01/28 09:44:43;;;;;;;107.90;20.30;;;5.00;99.90;;;;;;5032205;28;20208;-55
2022/01/28 09:47:14;;;;;;;88.43;20.53;;;5.20;99.90;;;;;;5032724;28;20186;-54
2022/01/28 09:49:41;;;;;;;116.17;21.53;;;5.30;99.90;;;;;;5033048;28;20257;-57
2022/01/28 09:52:09;;;;;;;94.80;20.87;;;5.40;99.90;;;;;;5030706;28;20261;-57
2022/01/28 09:54:36;;;;;;;87.70;19.97;;;5.50;99.90;;;;;;5017604;28;20566;-56
2022/01/28 09:57:03;;;;;;;88.80;20.77;;;5.60;99.90;;;;;;5032671;28;20178;-56
2022/01/28 09:59:29;;;;;;;104.27;20.50;;;5.70;99.90;;;;;;5023646;28;20214;-57
2022/01/28 10:01:56;;;;;;;92.60;19.63;;;5.60;99.90;;;;;;5017751;28;20181;-57
2022/01/28 10:04:22;;;;;;;61.73;18.00;;;5.70;99.90;;;;;;5032567;28;20201;-57
2022/01/28 10:06:49;;;;;;;66.47;17.60;;;5.80;99.90;;;;;;5032818;28;20173;-56
2022/01/28 10:09:18;;;;;;;43.53;15.00;;;5.90;99.90;;;;;;5032906;28;20264;-59
2022/01/28 10:11:47;;;;;;;59.17;17.17;;;6.10;99.90;;;;;;5032355;28;20257;-57
2022/01/28 10:14:16;;;;;;;50.03;15.70;;;6.10;99.90;;;;;;5032907;28;20186;-60
2022/01/28 10:16:53;;;;;;;49.83;15.57;;;6.30;99.90;;;;;;5032093;28;20213;-59
2022/01/28 10:19:19;;;;;;;47.13;13.67;;;6.30;99.90;;;;;;5032551;28;20338;-57
2022/01/28 10:21:46;;;;;;;47.97;15.20;;;6.30;99.90;;;;;;5030202;28;20178;-57
2022/01/28 10:24:26;;;;;;;46.30;13.20;;;6.30;99.90;;;;;;5031075;28;20186;-57
2022/01/28 10:27:06;;;;;;;38.67;12.43;;;6.50;99.90;;;;;;5031195;28;20265;-57
2022/01/28 10:29:34;;;;;;;41.80;12.17;;;6.40;99.90;;;;;;5031568;28;20667;-57
2022/01/28 10:32:04;;;;;;;40.40;13.47;;;6.50;99.90;;;;;;5030157;28;20174;-57
2022/01/28 10:34:51;;;;;;;40.80;13.47;;;6.60;99.90;;;;;;5012652;28;20232;-57
2022/01/28 10:37:21;;;;;;;42.00;13.30;;;6.70;99.90;;;;;;5028575;28;20216;-57
2022/01/28 10:39:50;;;;;;;30.17;12.03;;;6.80;99.90;;;;;;5032242;28;20290;-57
2022/01/28 10:42:38;;;;;;;25.97;11.10;;;7.10;99.90;;;;;;5031867;28;20192;-57
2022/01/28 10:45:11;;;;;;;25.37;10.10;;;6.80;99.90;;;;;;5031624;28;20264;-56
2022/01/28 10:47:44;;;;;;;30.33;12.13;;;6.90;99.90;;;;;;5030452;28;20185;-58
2022/01/28 10:50:24;;;;;;;24.60;10.93;;;7.00;99.90;;;;;;5032080;28;20162;-57
2022/01/28 10:53:14;;;;;;;26.90;11.23;;;7.10;99.90;;;;;;5032180;28;20169;-56
2022/01/28 10:55:42;;;;;;;26.17;11.03;;;7.20;99.90;;;;;;5032077;28;20245;-56
2022/01/28 10:58:15;;;;;;;18.57;9.40;;;7.40;99.90;;;;;;5032162;28;20196;-56
2022/01/28 11:00:43;;;;;;;26.03;10.50;;;7.50;99.90;;;;;;5031606;28;20221;-56
2022/01/28 11:03:12;;;;;;;20.90;9.27;;;7.60;99.90;;;;;;5031865;28;20610;-57
2022/01/28 11:05:38;;;;;;;17.53;9.83;;;7.50;99.90;;;;;;5025853;28;20197;-58
2022/01/28 11:08:07;;;;;;;21.97;9.07;;;7.40;99.90;;;;;;5020144;28;20520;-57
2022/01/28 11:10:33;;;;;;;24.97;9.37;;;7.40;99.90;;;;;;5012126;28;20167;-57
2022/01/28 11:13:01;;;;;;;20.40;9.30;;;7.50;99.90;;;;;;5011931;28;20261;-57
2022/01/28 11:15:28;;;;;;;18.40;8.07;;;7.50;99.90;;;;;;5011723;28;20276;-57
2022/01/28 11:17:55;;;;;;;19.00;7.63;;;7.80;99.90;;;;;;5011725;28;20171;-58
2022/01/28 11:20:32;;;;;;;21.00;8.73;;;8.10;99.90;;;;;;5011705;28;20715;-57
2022/01/28 11:23:31;;;;;;;18.17;7.43;;;9.50;99.90;;;;;;5012099;28;20252;-58
2022/01/28 11:26:14;;;;;;;16.93;6.97;;;9.90;99.90;;;;;;5011783;28;20735;-58
2022/01/28 11:28:43;;;;;;;14.83;6.07;;;9.90;99.90;;;;;;5011537;28;20170;-58
2022/01/28 11:31:10;;;;;;;9.67;5.60;;;9.60;99.90;;;;;;5011596;28;20178;-57
2022/01/28 11:33:48;;;;;;;10.73;5.10;;;9.20;99.90;;;;;;5011634;28;20276;-57
2022/01/28 11:36:35;;;;;;;11.60;5.00;;;8.90;99.90;;;;;;5011627;28;20257;-57
2022/01/28 11:39:09;;;;;;;11.03;5.63;;;8.60;99.90;;;;;;5011167;28;20229;-58
2022/01/28 11:41:35;;;;;;;16.33;5.23;;;8.30;99.90;;;;;;5013437;28;20178;-57
2022/01/28 11:44:01;;;;;;;13.63;6.40;;;8.40;99.90;;;;;;5030475;28;20181;-57
2022/01/28 11:46:37;;;;;;;13.50;6.87;;;8.90;99.90;;;;;;5031129;28;20189;-57
2022/01/28 11:49:04;;;;;;;15.03;7.67;;;8.90;99.90;;;;;;5031131;28;20173;-57
2022/01/28 11:51:33;;;;;;;20.20;8.93;;;9.50;99.90;;;;;;5030971;28;20173;-58
2022/01/28 11:54:00;;;;;;;20.27;7.13;;;9.80;99.90;;;;;;5028272;28;20178;-57
2022/01/28 11:56:27;;;;;;;17.83;7.17;;;10.60;99.90;;;;;;5030799;28;20288;-56
2022/01/28 11:58:57;;;;;;;9.83;6.00;;;11.80;99.90;;;;;;5013008;28;20213;-59
2022/01/28 12:01:43;;;;;;;13.30;5.70;;;12.20;99.90;;;;;;5030740;28;20174;-60
2022/01/28 12:04:29;;;;;;;13.07;5.57;;;12.20;99.90;;;;;;5030738;28;20177;-59
2022/01/28 12:07:03;;;;;;;15.70;6.30;;;11.90;99.90;;;;;;5030907;28;20184;-59
2022/01/28 12:09:31;;;;;;;17.40;7.80;;;11.70;99.90;;;;;;5030770;28;20165;-59
2022/01/28 12:11:59;;;;;;;15.40;7.33;;;10.90;99.90;;;;;;5030796;28;20189;-59
2022/01/28 12:14:55;;;;;;;14.70;7.67;;;10.40;99.90;;;;;;5024388;28;20649;-57
2022/01/28 12:17:33;;;;;;;22.37;8.70;;;10.90;99.90;;;;;;5012463;28;20190;-58
2022/01/28 12:20:24;;;;;;;17.57;7.70;;;10.90;99.90;;;;;;5012613;28;20279;-58
2022/01/28 12:23:11;;;;;;;19.57;7.80;;;11.00;99.90;;;;;;5030458;28;20335;-58
2022/01/28 12:25:43;;;;;;;14.60;6.70;;;11.70;99.90;;;;;;5012635;28;20178;-59
2022/01/28 12:28:17;;;;;;;10.13;4.55;;;11.90;99.90;;;;;;5030554;28;20243;-59
2022/01/28 12:30:49;;;;;;;14.07;4.38;;;12.00;99.90;;;;;;5030471;28;20528;-59
2022/01/28 12:33:21;;;;;;;15.50;3.97;;;12.10;99.90;;;;;;5030426;28;20174;-59
2022/01/28 12:35:50;;;;;;;16.30;4.75;;;12.10;99.90;;;;;;5030370;28;20882;-59
2022/01/28 12:38:20;;;;;;;16.07;3.40;;;12.30;99.90;;;;;;5030414;28;20256;-59
2022/01/28 12:40:49;;;;;;;9.43;2.40;;;12.30;99.90;;;;;;5030336;28;20671;-59
2022/01/28 12:43:24;;;;;;;6.80;1.90;;;11.90;99.90;;;;;;5024880;28;20702;-58
2022/01/28 12:46:00;;;;;;;6.87;1.97;;;11.80;99.90;;;;;;5028835;28;20174;-59
2022/01/28 12:48:26;;;;;;;9.83;2.87;;;11.20;99.90;;;;;;5029798;28;20675;-57
2022/01/28 12:50:54;;;;;;;9.60;2.60;;;11.30;99.90;;;;;;5017412;28;20174;-58
2022/01/28 12:53:39;;;;;;;10.00;2.23;;;11.10;99.90;;;;;;5016107;28;20436;-58
2022/01/28 12:56:06;;;;;;;6.47;2.50;;;11.30;99.90;;;;;;5027889;28;20186;-59
2022/01/28 12:58:36;;;;;;;6.53;2.57;;;11.80;99.90;;;;;;5008861;28;20186;-59
2022/01/28 13:01:14;;;;;;;10.90;2.23;;;12.20;99.90;;;;;;5034103;28;20174;-59
2022/01/28 13:09:00;;;;;;;8.30;3.47;;;11.40;99.90;;;;;;5022028;28;20185;-60
2022/01/28 13:11:27;;;;;;;12.07;3.80;;;11.30;99.90;;;;;;5033710;28;20189;-59
2022/01/28 13:13:57;;;;;;;13.93;3.07;;;10.90;99.90;;;;;;5033806;28;20170;-59
2022/01/28 13:16:34;;;;;;;5.27;1.67;;;10.80;99.90;;;;;;5033419;28;20226;-59
2022/01/28 13:19:01;;;;;;;14.17;2.73;;;10.80;99.90;;;;;;5033853;28;20198;-59
2022/01/28 13:21:28;;;;;;;8.77;1.53;;;10.90;99.90;;;;;;5016043;28;20166;-59
2022/01/28 13:24:09;;;;;;;6.13;1.33;;;10.80;99.90;;;;;;5033734;28;20184;-59
2022/01/28 13:26:56;;;;;;;5.13;1.10;;;11.20;99.90;;;;;;5031606;28;20633;-58
2022/01/28 13:29:47;;;;;;;6.07;1.17;;;11.20;99.90;;;;;;5004815;28;20197;-59
2022/01/28 13:32:25;;;;;;;9.37;1.50;;;12.20;99.90;;;;;;5039790;28;20652;-59
2022/01/28 13:34:56;;;;;;;4.90;1.57;;;13.40;99.90;;;;;;5035781;28;20621;-59
2022/01/28 13:37:43;;;;;;;9.60;1.33;;;13.40;99.90;;;;;;5014037;28;20695;-61
2022/01/28 13:40:11;;;;;;;7.60;1.02;;;14.00;99.90;;;;;;4999366;28;20213;-61
2022/01/28 13:42:58;;;;;;;3.83;1.20;;;14.00;99.90;;;;;;5012083;28;20614;-61
2022/01/28 13:45:34;;;;;;;9.83;1.50;;;13.30;99.90;;;;;;5008767;28;20312;-60
2022/01/28 13:48:01;;;;;;;9.50;1.42;;;12.90;99.90;;;;;;5031059;28;20194;-59
2022/01/28 13:50:41;;;;;;;18.58;2.03;;;12.20;99.90;;;;;;5032672;28;20186;-59
2022/01/28 13:56:04;;;;;;;5.33;1.40;;;11.70;99.90;;;;;;5032677;28;20200;-59
2022/01/28 13:58:45;;;;;;;6.30;1.20;;;11.30;99.90;;;;;;5032862;28;20637;-59
2022/01/28 14:01:12;;;;;;;5.80;1.10;;;;;;;;;;5026086;28;20660;-60
2022/01/28 14:04:07;;;;;;;8.07;1.50;;;11.40;99.90;;;;;;5032556;28;20215;-59
2022/01/28 14:06:36;;;;;;;6.57;1.00;;;11.40;99.90;;;;;;5008912;28;20202;-60
2022/01/28 14:09:22;;;;;;;3.47;1.07;;;11.30;99.90;;;;;;5031229;28;20193;-59
2022/01/28 14:11:53;;;;;;;8.83;1.20;;;11.20;99.90;;;;;;5031560;28;20232;-59
2022/01/28 14:16:54;;;;;;;3.20;1.10;;;11.20;99.90;;;;;;5021652;28;20333;-59
2022/01/28 14:19:21;;;;;;;6.20;1.27;;;11.30;99.90;;;;;;4994417;28;20688;-59
2022/01/28 14:21:47;;;;;;;5.60;0.90;;;11.40;99.90;;;;;;5028564;28;20252;-59
2022/01/28 14:24:22;;;;;;;3.67;1.10;;;11.30;99.90;;;;;;5014626;28;20644;-59
2022/01/28 14:27:10;;;;;;;4.57;1.20;;;11.20;99.90;;;;;;5025914;28;20173;-60
2022/01/28 14:32:11;;;;;;;11.03;1.90;;;11.20;99.90;;;;;;5031739;28;20224;-59
2022/01/28 14:34:38;;;;;;;5.33;1.60;;;11.10;99.90;;;;;;5032036;28;20588;-58
2022/01/28 14:37:05;;;;;;;7.13;1.80;;;11.00;99.90;;;;;;5032169;28;20174;-58
2022/01/28 14:39:32;;;;;;;6.87;1.53;;;10.70;99.90;;;;;;5032247;28;20387;-59
2022/01/28 14:42:02;;;;;;;4.73;1.73;;;10.50;99.90;;;;;;5031378;28;20185;-61